createdAt,value
2023-01-02T00:01:24.340Z,72.43
2023-01-02T00:03:51.271Z,72.57
2023-01-02T00:06:18.270Z,72.07
2023-01-02T00:08:45.085Z,71.99
2023-01-02T00:11:11.890Z,71.99
2023-01-02T00:13:38.862Z,71.95
2023-01-02T00:16:06.338Z,71.91
2023-01-02T00:18:33.236Z,71.69
2023-01-02T00:21:07.101Z,71.73
2023-01-02T00:23:34.206Z,71.87
2023-01-02T00:26:01.483Z,71.59
2023-01-02T00:28:28.759Z,71.22
2023-01-02T00:30:55.729Z,71.35
2023-01-02T00:33:23.147Z,71.34
2023-01-02T00:35:50.000Z,70.93
2023-01-02T00:38:18.466Z,71.17
2023-01-02T00:40:45.345Z,70.68
2023-01-02T00:43:12.153Z,70.58
2023-01-02T00:45:38.977Z,70.35
2023-01-02T00:48:05.801Z,70.61
2023-01-02T00:50:32.642Z,70.62
2023-01-02T00:52:59.447Z,70.49
2023-01-02T00:55:26.268Z,70.57
2023-01-02T00:57:53.156Z,70.67
2023-01-02T01:00:23.850Z,70.58
2023-01-02T01:02:56.052Z,70.54
2023-01-02T01:05:24.439Z,70.76
2023-01-02T01:07:51.697Z,70.61
2023-01-02T01:10:18.507Z,71.10
2023-01-02T01:12:45.306Z,70.80
2023-01-02T01:15:12.155Z,70.96
2023-01-02T01:17:39.289Z,70.91
2023-01-02T01:20:07.540Z,70.95
2023-01-02T01:22:34.532Z,71.00
2023-01-02T01:25:01.390Z,70.34
2023-01-02T01:27:28.201Z,70.78
2023-01-02T01:29:55.038Z,70.80
2023-01-02T01:32:21.850Z,70.38
2023-01-02T01:34:48.645Z,70.44
2023-01-02T01:37:15.456Z,70.79
2023-01-02T01:39:42.283Z,70.83
2023-01-02T01:42:13.642Z,70.67
2023-01-02T01:44:51.872Z,70.61
2023-01-02T01:47:57.125Z,70.86
2023-01-02T01:50:33.643Z,70.85
2023-01-02T01:53:16.491Z,70.86
2023-01-02T01:56:00.656Z,70.79
2023-01-02T01:58:35.225Z,70.75
2023-01-02T02:01:03.294Z,70.68
2023-01-02T02:03:32.624Z,70.44
2023-01-02T02:06:00.875Z,70.51
2023-01-02T02:08:55.718Z,70.26
2023-01-02T02:11:23.332Z,70.14
2023-01-02T02:13:50.722Z,69.83
2023-01-02T02:16:17.479Z,69.70
2023-01-02T02:18:56.260Z,69.80
2023-01-02T02:22:19.052Z,69.49
2023-01-02T02:25:13.641Z,69.27
2023-01-02T02:28:21.608Z,69.39
2023-01-02T02:31:09.316Z,69.18
2023-01-02T02:33:58.788Z,69.68
2023-01-02T02:36:58.024Z,69.43
2023-01-02T02:39:34.545Z,69.24
2023-01-02T02:42:32.177Z,69.18
2023-01-02T02:45:29.696Z,69.59
2023-01-02T02:48:23.042Z,68.83
2023-01-02T02:51:04.491Z,68.93
2023-01-02T02:53:42.806Z,68.06
2023-01-02T02:56:12.457Z,68.01
2023-01-02T02:58:41.573Z,68.12
2023-01-02T03:01:15.763Z,68.15
2023-01-02T03:03:43.197Z,68.02
2023-01-02T03:06:19.271Z,68.23
2023-01-02T03:09:13.084Z,68.21
2023-01-02T03:12:19.486Z,67.97
2023-01-02T03:14:57.615Z,67.86
2023-01-02T03:17:37.353Z,68.00
2023-01-02T03:20:16.025Z,68.31
2023-01-02T03:22:50.620Z,68.03
2023-01-02T03:25:18.786Z,68.56
2023-01-02T03:27:48.334Z,68.04
2023-01-02T03:30:21.861Z,68.28
2023-01-02T03:33:03.904Z,68.22
2023-01-02T03:35:41.830Z,68.79
2023-01-02T03:38:15.427Z,68.73
2023-01-02T03:40:49.164Z,69.25
2023-01-02T03:43:22.531Z,68.61
2023-01-02T03:46:01.184Z,68.82
2023-01-02T03:48:48.360Z,68.66
2023-01-02T03:51:15.231Z,68.74
2023-01-02T03:53:42.202Z,68.65
2023-01-02T03:56:40.912Z,68.85
2023-01-02T03:59:59.013Z,69.18
2023-01-02T04:03:04.782Z,68.71
2023-01-02T04:05:48.980Z,69.00
2023-01-02T04:08:33.504Z,69.24
2023-01-02T04:11:02.336Z,69.20
2023-01-02T04:13:49.009Z,69.38
2023-01-02T04:16:22.372Z,68.87
2023-01-02T04:18:56.073Z,69.16
2023-01-02T04:21:29.469Z,69.28
2023-01-02T04:24:10.894Z,70.01
2023-01-02T04:26:49.908Z,69.88
2023-01-02T04:29:16.960Z,70.42
2023-01-02T04:32:01.607Z,70.48
2023-01-02T04:34:32.440Z,70.58
2023-01-02T04:36:59.644Z,70.97
2023-01-02T04:39:28.921Z,71.31
2023-01-02T04:41:55.876Z,71.62
2023-01-02T04:44:22.770Z,71.77
2023-01-02T04:46:49.618Z,71.61
2023-01-02T04:49:16.434Z,71.24
2023-01-02T04:51:43.356Z,71.43
2023-01-02T04:54:12.162Z,71.66
2023-01-02T04:56:39.329Z,71.65
2023-01-02T04:59:06.252Z,70.93
2023-01-02T05:01:33.185Z,71.20
2023-01-02T05:04:00.061Z,71.31
2023-01-02T05:06:26.938Z,71.19
2023-01-02T05:08:53.831Z,71.47
2023-01-02T05:11:21.392Z,70.85
2023-01-02T05:13:48.313Z,70.92
2023-01-02T05:16:15.358Z,71.22
2023-01-02T05:18:42.313Z,70.91
2023-01-02T05:21:32.589Z,71.25
2023-01-02T05:24:02.468Z,71.13
2023-01-02T05:26:33.639Z,71.29
2023-01-02T05:29:01.271Z,71.06
2023-01-02T05:31:28.973Z,71.05
2023-01-02T05:33:58.351Z,71.10
2023-01-02T05:36:26.548Z,71.45
2023-01-02T05:38:53.757Z,70.75
2023-01-02T05:41:23.707Z,70.91
2023-01-02T05:43:50.528Z,70.66
2023-01-02T05:46:20.377Z,71.25
2023-01-02T05:48:47.310Z,71.18
2023-01-02T05:51:17.030Z,70.95
2023-01-02T05:53:44.350Z,71.33
2023-01-02T05:56:17.447Z,71.69
2023-01-02T05:58:47.801Z,71.47
2023-01-02T06:01:17.652Z,71.85
2023-01-02T06:03:53.922Z,71.00
2023-01-02T06:06:27.152Z,71.51
2023-01-02T06:08:53.973Z,71.94
2023-01-02T06:11:20.895Z,71.75
2023-01-02T06:13:47.827Z,71.89
2023-01-02T06:16:14.787Z,72.69
2023-01-02T06:18:41.875Z,72.16
2023-01-02T06:21:12.467Z,72.34
2023-01-02T06:23:40.213Z,71.86
2023-01-02T06:26:19.601Z,72.38
2023-01-02T06:28:50.069Z,71.48
2023-01-02T06:31:18.718Z,71.39
2023-01-02T06:33:45.867Z,71.00
2023-01-02T06:36:16.997Z,70.90
2023-01-02T06:38:45.547Z,71.01
2023-01-02T06:41:13.987Z,70.25
2023-01-02T06:43:49.800Z,71.10
2023-01-02T06:46:19.298Z,70.61
2023-01-02T06:48:47.001Z,70.59
2023-01-02T06:51:23.943Z,71.14
2023-01-02T06:53:51.323Z,71.23
2023-01-02T06:56:19.941Z,70.95
2023-01-02T06:58:47.070Z,70.71
2023-01-02T07:01:20.543Z,70.98
2023-01-02T07:03:48.340Z,70.62
2023-01-02T07:06:19.095Z,70.04
2023-01-02T07:08:46.901Z,70.49
2023-01-02T07:11:22.782Z,70.32
2023-01-02T07:13:52.712Z,69.56
2023-01-02T07:16:22.150Z,69.65
2023-01-02T07:18:49.692Z,70.10
2023-01-02T07:21:18.196Z,70.60
2023-01-02T07:23:45.166Z,70.36
2023-01-02T07:26:12.920Z,70.14
2023-01-02T07:28:40.306Z,69.66
2023-01-02T07:31:12.379Z,69.13
2023-01-02T07:33:39.190Z,68.56
2023-01-02T07:36:11.392Z,68.03
2023-01-02T07:38:39.200Z,65.97
2023-01-02T07:41:17.166Z,65.24
2023-01-02T07:43:46.242Z,64.40
2023-01-02T07:46:16.895Z,63.69
2023-01-02T07:48:44.954Z,63.14
2023-01-02T07:51:12.662Z,62.59
2023-01-02T07:53:41.383Z,62.31
2023-01-02T07:56:08.949Z,61.75
2023-01-02T07:58:36.551Z,61.71
2023-01-02T08:01:13.040Z,60.88
2023-01-02T08:03:40.235Z,60.38
2023-01-02T08:06:19.132Z,59.96
2023-01-02T08:08:46.661Z,59.88
2023-01-02T08:11:19.682Z,59.85
2023-01-02T08:13:46.797Z,59.50
2023-01-02T08:16:17.687Z,59.09
2023-01-02T08:18:46.638Z,59.68
2023-01-02T08:21:14.427Z,59.15
2023-01-02T08:23:41.277Z,59.22
2023-01-02T08:26:10.573Z,59.33
2023-01-02T08:28:39.681Z,59.67
2023-01-02T08:31:18.769Z,59.78
2023-01-02T08:33:46.487Z,60.45
2023-01-02T08:36:14.525Z,60.29
2023-01-02T08:38:42.071Z,60.81
2023-01-02T08:41:09.139Z,60.80
2023-01-02T08:43:36.589Z,60.63
2023-01-02T08:46:08.372Z,60.45
2023-01-02T08:48:36.265Z,59.85
2023-01-02T08:51:04.007Z,59.94
2023-01-02T08:53:30.842Z,59.43
2023-01-02T08:56:28.097Z,59.35
2023-01-02T08:59:07.439Z,59.28
2023-01-02T09:01:35.035Z,59.25
2023-01-02T09:04:09.372Z,59.46
2023-01-02T09:06:38.875Z,59.15
2023-01-02T09:09:11.592Z,59.38
2023-01-02T09:11:51.278Z,59.08
2023-01-02T09:14:20.526Z,59.50
2023-01-02T09:16:48.932Z,59.12
2023-01-02T09:19:15.981Z,59.21
2023-01-02T09:21:42.850Z,59.22
2023-01-02T09:24:10.160Z,58.89
2023-01-02T09:26:38.138Z,58.95
2023-01-02T09:29:05.234Z,58.44
2023-01-02T09:31:32.206Z,58.23
2023-01-02T09:33:59.196Z,58.30
2023-01-02T09:36:26.075Z,57.56
2023-01-02T09:38:58.667Z,57.97
2023-01-02T09:41:36.119Z,57.63
2023-01-02T09:44:18.805Z,57.68
2023-01-02T09:47:05.901Z,57.50
2023-01-02T09:49:50.424Z,57.24
2023-01-02T09:52:22.832Z,56.44
2023-01-02T09:54:49.741Z,56.62
2023-01-02T09:57:29.569Z,55.11
2023-01-02T10:00:18.994Z,54.89
2023-01-02T10:03:11.372Z,54.39
2023-01-02T10:05:41.156Z,53.09
2023-01-02T10:08:41.200Z,53.16
2023-01-02T10:11:36.086Z,52.87
2023-01-02T10:14:44.530Z,52.57
2023-01-02T10:17:15.338Z,52.75
2023-01-02T10:19:49.848Z,53.22
2023-01-02T10:22:22.858Z,53.81
2023-01-02T10:25:01.611Z,53.65
2023-01-02T10:27:38.098Z,54.10
2023-01-02T10:30:20.236Z,54.46
2023-01-02T10:33:04.811Z,54.88
2023-01-02T10:35:39.365Z,54.81
2023-01-02T10:38:06.595Z,54.67
2023-01-02T10:40:34.015Z,54.25
2023-01-02T10:43:01.480Z,54.93
2023-01-02T10:45:29.136Z,55.10
2023-01-02T10:47:55.989Z,55.65
2023-01-02T10:50:29.422Z,55.89
2023-01-02T10:53:20.224Z,56.35
2023-01-02T10:55:47.285Z,57.09
2023-01-02T10:58:23.800Z,57.50
2023-01-02T11:01:21.393Z,58.26
2023-01-02T11:04:09.826Z,58.19
2023-01-02T11:07:00.779Z,59.23
2023-01-02T11:09:35.808Z,59.36
2023-01-02T11:12:14.063Z,58.97
2023-01-02T11:14:41.133Z,59.07
2023-01-02T11:17:16.991Z,59.21
2023-01-02T11:19:52.092Z,59.32
2023-01-02T11:22:36.158Z,59.85
2023-01-02T11:25:22.460Z,60.05
2023-01-02T11:27:49.911Z,59.83
2023-01-02T11:30:32.731Z,60.68
2023-01-02T11:33:15.708Z,60.72
2023-01-02T11:35:53.115Z,60.52
2023-01-02T11:38:30.644Z,60.46
2023-01-02T11:41:02.704Z,60.52
2023-01-02T11:43:48.550Z,61.49
2023-01-02T11:46:37.197Z,60.77
2023-01-02T11:49:20.897Z,60.77
2023-01-02T11:51:59.666Z,61.55
2023-01-02T11:54:41.873Z,60.79
2023-01-02T11:57:36.204Z,61.18
2023-01-02T12:00:14.041Z,61.21
2023-01-02T12:02:48.071Z,62.43
2023-01-02T12:05:34.949Z,63.01
2023-01-02T12:08:51.036Z,63.51
2023-01-02T12:11:27.128Z,64.85
2023-01-02T12:14:21.637Z,65.13
2023-01-02T12:17:19.069Z,65.22
2023-01-02T12:20:06.941Z,65.43
2023-01-02T12:22:55.141Z,66.31
2023-01-02T12:25:35.174Z,66.40
2023-01-02T12:28:43.605Z,67.15
2023-01-02T12:31:22.341Z,67.15
2023-01-02T12:34:28.485Z,67.47
2023-01-02T12:37:23.218Z,68.27
2023-01-02T12:40:11.397Z,68.94
2023-01-02T12:42:43.941Z,69.17
2023-01-02T12:45:50.292Z,69.67
2023-01-02T12:48:31.930Z,70.03
2023-01-02T12:51:11.229Z,70.58
2023-01-02T12:53:44.995Z,70.48
2023-01-02T12:57:21.889Z,70.73
2023-01-02T13:00:32.638Z,71.25
2023-01-02T13:03:41.100Z,71.96
2023-01-02T13:06:50.290Z,72.12
2023-01-02T13:09:35.115Z,72.07
2023-01-02T13:12:10.661Z,72.69
2023-01-02T13:15:13.195Z,72.97
2023-01-02T13:18:03.654Z,73.21
2023-01-02T13:20:57.581Z,73.42
2023-01-02T13:23:35.959Z,73.13
2023-01-02T13:26:19.438Z,73.13
2023-01-02T13:28:56.618Z,73.63
2023-01-02T13:34:24.656Z,74.03
2023-01-02T13:37:01.031Z,74.63
2023-01-02T13:39:51.109Z,74.37
2023-01-02T13:42:50.503Z,74.52
2023-01-02T13:45:24.778Z,74.68
2023-01-02T13:47:55.958Z,74.66
2023-01-02T13:50:28.036Z,74.43
2023-01-02T13:53:09.945Z,74.45
2023-01-02T13:55:40.628Z,74.73
2023-01-02T13:58:17.598Z,74.56
2023-01-02T14:01:00.124Z,74.62
2023-01-02T14:03:32.497Z,74.67
2023-01-02T14:06:20.762Z,74.25
2023-01-02T14:09:05.940Z,74.63
2023-01-02T14:11:56.388Z,74.19
2023-01-02T14:14:42.665Z,74.31
2023-01-02T14:17:35.499Z,74.31
2023-01-02T14:20:28.798Z,73.82
2023-01-02T14:23:02.842Z,73.67
2023-01-02T14:25:32.051Z,73.03
2023-01-02T14:28:05.721Z,73.49
2023-01-02T14:30:36.663Z,73.01
2023-01-02T14:33:06.921Z,73.48
2023-01-02T14:35:41.802Z,73.37
2023-01-02T14:38:17.183Z,73.56
2023-01-02T14:40:46.057Z,74.09
2023-01-02T14:43:32.410Z,73.58
2023-01-02T14:46:07.823Z,73.34
2023-01-02T14:48:59.273Z,73.79
2023-01-02T14:51:50.724Z,73.79
2023-01-02T14:54:39.984Z,73.11
2023-01-02T14:57:30.192Z,73.43
2023-01-02T15:00:02.182Z,73.73
2023-01-02T15:02:40.278Z,73.91
2023-01-02T15:05:18.030Z,74.10
2023-01-02T15:07:50.356Z,74.45
2023-01-02T15:10:20.142Z,74.70
2023-01-02T15:13:11.057Z,75.02
2023-01-02T15:15:48.430Z,74.95
2023-01-02T15:18:23.951Z,75.37
2023-01-02T15:20:53.691Z,75.29
2023-01-02T15:23:23.888Z,75.03
2023-01-02T15:25:51.820Z,75.19
2023-01-02T15:28:38.607Z,75.82
2023-01-02T15:31:14.528Z,75.73
2023-01-02T15:33:41.936Z,75.35
2023-01-02T15:36:14.795Z,75.70
2023-01-02T15:38:42.828Z,74.63
2023-01-02T15:41:19.012Z,74.62
2023-01-02T15:44:05.863Z,74.35
2023-01-02T15:46:32.977Z,74.46
2023-01-02T15:49:02.811Z,74.43
2023-01-02T15:51:40.561Z,75.13
2023-01-02T15:54:14.332Z,77.38
2023-01-02T15:56:41.994Z,78.18
2023-01-02T15:59:41.186Z,77.22
2023-01-02T16:02:31.164Z,76.64
2023-01-02T16:05:17.751Z,76.36
2023-01-02T16:07:54.706Z,76.21
2023-01-02T16:10:29.447Z,76.63
2023-01-02T16:13:01.053Z,76.99
2023-01-02T16:15:32.348Z,76.99
2023-01-02T16:17:59.203Z,77.55
2023-01-02T16:20:27.708Z,78.04
2023-01-02T16:23:06.041Z,78.10
2023-01-02T16:25:43.477Z,79.16
2023-01-02T16:28:35.033Z,79.15
2023-01-02T16:31:23.196Z,79.29
2023-01-02T16:33:50.288Z,79.23
2023-01-02T16:36:24.718Z,79.75
2023-01-02T16:39:00.346Z,80.36
2023-01-02T16:41:40.899Z,80.93
2023-01-02T16:44:16.362Z,80.49
2023-01-02T16:46:50.629Z,81.55
2023-01-02T16:49:22.986Z,81.79
2023-01-02T16:51:54.529Z,81.51
2023-01-02T16:54:21.603Z,81.41
2023-01-02T16:56:49.965Z,80.81
2023-01-02T16:59:16.866Z,80.87
2023-01-02T17:01:43.957Z,80.50
2023-01-02T17:04:14.048Z,79.99
2023-01-02T17:06:40.885Z,80.02
2023-01-02T17:09:07.706Z,80.06
2023-01-02T17:11:34.614Z,80.03
2023-01-02T17:14:01.786Z,80.91
2023-01-02T17:16:28.713Z,79.87
2023-01-02T17:18:55.633Z,79.54
2023-01-02T17:21:25.174Z,79.34
2023-01-02T17:23:56.105Z,79.37
2023-01-02T17:26:23.060Z,79.88
2023-01-02T17:28:49.883Z,79.63
2023-01-02T17:31:21.154Z,79.18
2023-01-02T17:33:49.425Z,79.06
2023-01-02T17:36:16.385Z,79.19
2023-01-02T17:38:43.292Z,79.14
2023-01-02T17:41:10.198Z,79.50
2023-01-02T17:43:37.032Z,79.35
2023-01-02T17:46:38.711Z,79.63
2023-01-02T17:48:55.242Z,79.84
2023-01-02T17:51:22.043Z,79.93
2023-01-02T17:53:52.880Z,79.68
2023-01-02T17:56:20.437Z,80.00
2023-01-02T17:58:49.343Z,79.07
2023-01-02T18:01:19.335Z,79.49
2023-01-02T18:03:46.534Z,79.15
2023-01-02T18:06:13.580Z,79.98
2023-01-02T18:08:40.991Z,79.08
2023-01-02T18:11:11.323Z,78.52
2023-01-02T18:13:50.024Z,79.07
2023-01-02T18:16:27.061Z,78.99
2023-01-02T18:18:54.037Z,78.73
2023-01-02T18:21:24.205Z,78.68
2023-01-02T18:23:57.446Z,79.26
2023-01-02T18:26:26.275Z,79.43
2023-01-02T18:29:07.471Z,79.43
2023-01-02T18:31:43.321Z,79.31
2023-01-02T18:34:48.931Z,79.76
2023-01-02T18:37:26.056Z,79.01
2023-01-02T18:39:54.838Z,78.82
2023-01-02T18:42:29.770Z,78.61
2023-01-02T18:44:59.931Z,78.09
2023-01-02T18:47:30.544Z,79.46
2023-01-02T18:50:23.758Z,80.11
2023-01-02T18:52:52.063Z,79.18
2023-01-02T18:55:29.097Z,78.49
2023-01-02T18:58:01.413Z,77.67
2023-01-02T19:00:32.936Z,77.22
2023-01-02T19:03:08.956Z,76.41
2023-01-02T19:05:39.909Z,76.17
2023-01-02T19:08:12.679Z,76.36
2023-01-02T19:10:53.217Z,76.48
2023-01-02T19:13:46.345Z,77.12
2023-01-02T19:16:19.338Z,76.77
2023-01-02T19:18:49.330Z,76.68
2023-01-02T19:21:24.544Z,77.84
2023-01-02T19:23:59.463Z,77.24
2023-01-02T19:26:33.104Z,77.22
2023-01-02T19:29:10.047Z,77.80
2023-01-02T19:31:47.439Z,77.87
2023-01-02T19:34:41.696Z,78.50
2023-01-02T19:37:11.497Z,78.90
2023-01-02T19:39:59.952Z,78.92
2023-01-02T19:42:30.836Z,79.48
2023-01-02T19:45:02.899Z,79.91
2023-01-02T19:47:33.498Z,79.63
2023-01-02T19:50:01.552Z,80.00
2023-01-02T19:52:29.678Z,79.50
2023-01-02T19:54:57.700Z,80.51
2023-01-02T19:57:25.207Z,80.93
2023-01-02T19:59:55.613Z,81.12
2023-01-02T20:02:24.002Z,81.76
2023-01-02T20:04:53.588Z,81.17
2023-01-02T20:07:25.238Z,80.79
2023-01-02T20:09:52.820Z,81.05
2023-01-02T20:12:29.991Z,80.66
2023-01-02T20:14:58.565Z,80.09
2023-01-02T20:17:25.737Z,80.49
2023-01-02T20:19:52.597Z,80.84
2023-01-02T20:22:19.427Z,80.94
2023-01-02T20:24:46.964Z,80.84
2023-01-02T20:27:15.260Z,81.13
2023-01-02T20:29:43.142Z,80.93
2023-01-02T20:32:10.454Z,80.58
2023-01-02T20:34:37.455Z,80.30
2023-01-02T20:37:04.990Z,81.05
2023-01-02T20:39:32.019Z,80.36
2023-01-02T20:41:59.362Z,80.90
2023-01-02T20:44:26.286Z,80.14
2023-01-02T20:46:55.189Z,80.74
2023-01-02T20:49:25.263Z,79.70
2023-01-02T20:51:56.014Z,79.96
2023-01-02T20:54:24.774Z,79.89
2023-01-02T20:56:52.928Z,79.73
2023-01-02T20:59:21.025Z,79.90
2023-01-02T21:01:48.147Z,80.71
2023-01-02T21:04:20.454Z,79.71
2023-01-02T21:06:55.366Z,79.41
2023-01-02T21:09:22.271Z,79.00
2023-01-02T21:11:49.216Z,78.62
2023-01-02T21:14:16.095Z,78.21
2023-01-02T21:16:43.285Z,78.37
2023-01-02T21:19:10.167Z,78.34
2023-01-02T21:21:37.161Z,79.39
2023-01-02T21:24:04.203Z,78.20
2023-01-02T21:26:31.120Z,79.07
2023-01-02T21:28:57.967Z,79.49
2023-01-02T21:31:27.260Z,78.97
2023-01-02T21:33:54.220Z,79.82
2023-01-02T21:36:21.088Z,79.95
2023-01-02T21:38:47.928Z,80.29
2023-01-02T21:41:33.195Z,80.49
2023-01-02T21:44:00.025Z,79.91
2023-01-02T21:46:26.933Z,78.65
2023-01-02T21:48:53.841Z,79.24
2023-01-02T21:51:20.828Z,79.06
2023-01-02T21:53:47.691Z,78.35
2023-01-02T21:56:14.536Z,79.52
2023-01-02T21:58:41.448Z,78.48
2023-01-02T22:01:08.323Z,80.02
2023-01-02T22:03:35.503Z,78.82
2023-01-02T22:06:02.419Z,79.67
2023-01-02T22:08:29.351Z,78.71
2023-01-02T22:11:16.155Z,78.70
2023-01-02T22:13:43.054Z,79.06
2023-01-02T22:16:10.148Z,78.04
2023-01-02T22:18:38.452Z,77.95
2023-01-02T22:21:05.427Z,78.31
2023-01-02T22:23:33.174Z,79.11
2023-01-02T22:26:00.160Z,79.79
2023-01-02T22:28:27.163Z,80.34
2023-01-02T22:30:54.117Z,80.44
2023-01-02T22:33:21.031Z,81.25
2023-01-02T22:35:48.488Z,81.21
2023-01-02T22:38:15.403Z,81.66
2023-01-02T22:40:42.278Z,81.46
2023-01-02T22:43:15.651Z,81.72
2023-01-02T22:45:51.173Z,82.35
2023-01-02T22:48:24.316Z,81.22
2023-01-02T22:50:55.232Z,82.25
2023-01-02T22:53:32.742Z,82.29
2023-01-02T22:56:02.222Z,82.28
2023-01-02T22:58:29.278Z,82.00
2023-01-02T23:01:01.578Z,82.27
2023-01-02T23:03:38.707Z,82.83
2023-01-02T23:06:05.809Z,82.61
2023-01-02T23:08:32.798Z,82.73
2023-01-02T23:10:59.980Z,82.55
2023-01-02T23:13:27.339Z,82.02
2023-01-02T23:16:13.426Z,81.99
2023-01-02T23:18:58.637Z,81.65
2023-01-02T23:21:27.725Z,81.04
2023-01-02T23:23:55.171Z,81.64
2023-01-02T23:26:25.462Z,81.41
2023-01-02T23:29:08.629Z,81.66
2023-01-02T23:31:43.574Z,81.62
2023-01-02T23:34:13.914Z,81.28
2023-01-02T23:36:42.045Z,81.96
2023-01-02T23:39:16.580Z,80.85
2023-01-02T23:41:44.569Z,81.42
2023-01-02T23:44:13.258Z,80.34
2023-01-02T23:46:41.602Z,80.45
2023-01-02T23:49:10.223Z,80.64
2023-01-02T23:51:38.241Z,80.23
2023-01-02T23:54:06.300Z,80.82
2023-01-02T23:56:37.313Z,80.67
2023-01-02T23:59:11.497Z,80.86
